St. John's International Airport

CYYT | YYT

St. John's , Newfoundland-and-Labrador , Canada

Saturday, September 21st, 2019 | 09:00

Weather

CYYT 211100Z 36012G18KT 3SM BR OVC004 09/09 A2954 RMK FG2SF6 SLP008

Charts

No Charts Available

Gates

18 Available

Runways

3 Available

Events

No events for this airport


New event